createdAt,value
2022-11-25T00:02:02.524Z,49.70
2022-11-25T00:04:37.391Z,49.70
2022-11-25T00:07:11.614Z,49.70
2022-11-25T00:09:45.670Z,49.60
2022-11-25T00:12:19.614Z,49.60
2022-11-25T00:14:53.748Z,49.50
2022-11-25T00:17:29.069Z,49.50
2022-11-25T00:20:06.141Z,49.50
2022-11-25T00:22:40.046Z,49.40
2022-11-25T00:25:14.024Z,49.40
2022-11-25T00:27:48.255Z,49.50
2022-11-25T00:30:22.548Z,49.40
2022-11-25T00:32:57.968Z,49.40
2022-11-25T00:35:33.250Z,49.40
2022-11-25T00:38:06.947Z,49.40
2022-11-25T00:40:41.044Z,49.40
2022-11-25T00:43:34.335Z,49.40
2022-11-25T00:46:08.317Z,49.50
2022-11-25T00:48:43.920Z,49.60
2022-11-25T00:51:17.836Z,50.20
2022-11-25T00:53:57.462Z,50.40
2022-11-25T00:56:32.865Z,51.00
2022-11-25T00:59:07.098Z,51.10
2022-11-25T01:01:41.500Z,51.10
2022-11-25T01:04:17.471Z,51.10
2022-11-25T01:06:51.407Z,51.10
2022-11-25T01:09:25.488Z,51.10
2022-11-25T01:11:59.757Z,51.00
2022-11-25T01:14:34.845Z,51.90
2022-11-25T01:17:09.280Z,51.30
2022-11-25T01:19:44.646Z,51.50
2022-11-25T01:22:18.599Z,51.60
2022-11-25T01:24:52.598Z,51.60
2022-11-25T01:27:27.374Z,51.60
2022-11-25T01:30:01.595Z,51.50
2022-11-25T01:32:35.689Z,51.60
2022-11-25T01:35:12.048Z,51.60
2022-11-25T01:37:45.990Z,51.60
2022-11-25T01:40:20.195Z,51.70
2022-11-25T01:42:54.150Z,51.80
2022-11-25T01:45:36.427Z,51.80
2022-11-25T01:48:18.132Z,51.80
2022-11-25T01:50:54.257Z,51.80
2022-11-25T01:53:28.461Z,51.80
2022-11-25T01:56:06.097Z,51.90
2022-11-25T01:58:42.319Z,52.00
2022-11-25T02:01:18.122Z,52.00
2022-11-25T02:03:56.034Z,52.00
2022-11-25T02:06:36.002Z,51.90
2022-11-25T02:09:10.689Z,52.00
2022-11-25T02:11:46.292Z,51.90
2022-11-25T02:14:23.581Z,51.90
2022-11-25T02:17:02.621Z,51.90
2022-11-25T02:19:50.162Z,51.80
2022-11-25T02:22:32.399Z,51.80
2022-11-25T02:25:15.848Z,51.90
2022-11-25T02:27:54.060Z,51.90
2022-11-25T02:30:27.908Z,51.90
2022-11-25T02:33:02.417Z,51.90
2022-11-25T02:35:38.380Z,51.90
2022-11-25T02:38:16.034Z,51.90
2022-11-25T02:40:55.148Z,52.10
2022-11-25T02:43:29.941Z,52.10
2022-11-25T02:46:06.137Z,52.10
2022-11-25T02:49:07.489Z,52.10
2022-11-25T02:51:35.719Z,52.70
2022-11-25T02:54:09.737Z,52.10
2022-11-25T02:56:45.652Z,52.10
2022-11-25T02:59:19.708Z,52.10
2022-11-25T03:01:54.611Z,52.10
2022-11-25T03:04:28.510Z,52.20
2022-11-25T03:07:03.640Z,52.10
2022-11-25T03:09:37.505Z,52.10
2022-11-25T03:12:21.907Z,52.10
2022-11-25T03:15:00.005Z,52.20
2022-11-25T03:17:35.280Z,52.10
2022-11-25T03:20:12.744Z,52.30
2022-11-25T03:22:46.811Z,52.40
2022-11-25T03:25:21.193Z,52.40
2022-11-25T03:27:58.582Z,52.40
2022-11-25T03:30:32.902Z,52.50
2022-11-25T03:33:08.734Z,52.60
2022-11-25T03:35:42.331Z,52.50
2022-11-25T03:38:16.240Z,52.40
2022-11-25T03:40:50.457Z,52.30
2022-11-25T03:43:26.354Z,52.40
2022-11-25T03:46:00.383Z,52.30
2022-11-25T03:48:34.682Z,52.40
2022-11-25T03:51:08.269Z,53.00
2022-11-25T03:53:42.503Z,52.30
2022-11-25T03:56:17.224Z,52.40
2022-11-25T03:58:52.492Z,52.40
2022-11-25T04:01:27.226Z,52.40
2022-11-25T04:04:02.331Z,52.30
2022-11-25T04:06:39.347Z,52.30
2022-11-25T04:09:13.367Z,52.50
2022-11-25T04:12:04.774Z,52.60
2022-11-25T04:14:50.764Z,52.50
2022-11-25T04:17:25.038Z,52.60
2022-11-25T04:19:58.986Z,52.50
2022-11-25T04:22:33.116Z,52.40
2022-11-25T04:25:10.618Z,52.40
2022-11-25T04:27:45.108Z,52.30
2022-11-25T04:30:22.072Z,52.30
2022-11-25T04:32:56.208Z,52.30
2022-11-25T04:35:30.180Z,52.40
2022-11-25T04:38:04.819Z,52.40
2022-11-25T04:40:41.728Z,52.40
2022-11-25T04:43:25.496Z,52.40
2022-11-25T04:46:15.960Z,52.40
2022-11-25T04:48:53.611Z,52.40
2022-11-25T04:51:28.440Z,52.40
2022-11-25T04:54:07.623Z,52.50
2022-11-25T04:56:43.335Z,52.60
2022-11-25T04:59:34.769Z,52.50
2022-11-25T05:02:15.352Z,52.60
2022-11-25T05:04:55.509Z,52.60
2022-11-25T05:07:30.804Z,52.50
2022-11-25T05:10:05.149Z,52.60
2022-11-25T05:12:48.661Z,52.50
2022-11-25T05:15:25.275Z,52.70
2022-11-25T05:18:01.848Z,52.50
2022-11-25T05:20:55.356Z,52.60
2022-11-25T05:23:30.066Z,52.40
2022-11-25T05:26:05.174Z,52.40
2022-11-25T05:28:48.371Z,52.50
2022-11-25T05:31:22.348Z,52.30
2022-11-25T05:34:00.955Z,52.10
2022-11-25T05:36:35.004Z,52.20
2022-11-25T05:39:10.309Z,52.20
2022-11-25T05:42:04.437Z,52.30
2022-11-25T05:44:38.438Z,52.20
2022-11-25T05:47:12.458Z,52.20
2022-11-25T05:49:48.719Z,52.00
2022-11-25T05:52:22.976Z,51.90
2022-11-25T05:55:03.311Z,51.60
2022-11-25T05:57:37.251Z,51.50
2022-11-25T06:00:15.945Z,51.30
2022-11-25T06:02:52.853Z,51.10
2022-11-25T06:05:29.866Z,50.90
2022-11-25T06:08:03.866Z,51.20
2022-11-25T06:10:40.922Z,51.10
2022-11-25T06:13:15.342Z,51.10
2022-11-25T06:15:49.907Z,51.10
2022-11-25T06:18:25.454Z,50.70
2022-11-25T06:21:00.840Z,50.50
2022-11-25T06:23:36.533Z,50.30
2022-11-25T06:26:14.298Z,50.10
2022-11-25T06:28:48.617Z,49.90
2022-11-25T06:31:24.928Z,49.60
2022-11-25T06:34:15.858Z,49.40
2022-11-25T06:36:51.521Z,49.20
2022-11-25T06:39:25.381Z,49.30
2022-11-25T06:41:58.977Z,49.40
2022-11-25T06:44:32.887Z,49.50
2022-11-25T06:47:07.018Z,49.40
2022-11-25T06:49:40.916Z,49.50
2022-11-25T06:52:16.019Z,49.20
2022-11-25T06:54:50.505Z,49.10
2022-11-25T06:57:24.577Z,48.70
2022-11-25T06:59:58.818Z,48.60
2022-11-25T07:02:39.807Z,48.20
2022-11-25T07:05:16.332Z,40.20
2022-11-25T07:07:51.845Z,34.40
2022-11-25T07:10:26.053Z,32.70
2022-11-25T07:13:00.023Z,33.00
2022-11-25T07:15:36.321Z,34.00
2022-11-25T07:18:10.428Z,35.40
2022-11-25T07:20:44.284Z,35.90
2022-11-25T07:23:19.466Z,35.50
2022-11-25T07:25:53.338Z,34.90
2022-11-25T07:28:26.905Z,35.10
2022-11-25T07:31:25.149Z,35.30
2022-11-25T07:34:03.204Z,35.50
2022-11-25T07:36:38.202Z,35.70
2022-11-25T07:39:16.684Z,35.30
2022-11-25T07:41:52.365Z,35.60
2022-11-25T07:44:26.578Z,35.30
2022-11-25T07:47:07.797Z,35.40
2022-11-25T07:49:41.543Z,35.70
2022-11-25T07:52:15.422Z,36.50
2022-11-25T07:54:50.781Z,36.60
2022-11-25T07:57:24.742Z,37.10
2022-11-25T07:59:58.589Z,37.50
2022-11-25T08:02:32.166Z,38.20
2022-11-25T08:05:06.718Z,39.70
2022-11-25T08:07:40.598Z,39.00
2022-11-25T08:10:15.990Z,39.20
2022-11-25T08:12:49.946Z,39.60
2022-11-25T08:15:23.828Z,39.80
2022-11-25T08:17:57.649Z,40.00
2022-11-25T08:20:31.654Z,40.20
2022-11-25T08:23:05.561Z,41.10
2022-11-25T08:25:47.448Z,40.60
2022-11-25T08:28:24.409Z,40.70
2022-11-25T08:31:04.029Z,40.90
2022-11-25T08:33:38.287Z,41.20
2022-11-25T08:36:13.120Z,41.20
2022-11-25T08:38:48.919Z,41.20
2022-11-25T08:41:26.407Z,41.50
2022-11-25T08:44:02.149Z,41.50
2022-11-25T08:46:39.714Z,41.80
2022-11-25T08:49:14.346Z,41.90
2022-11-25T08:51:48.272Z,42.70
2022-11-25T08:54:22.305Z,42.40
2022-11-25T08:56:57.582Z,42.60
2022-11-25T08:59:31.490Z,42.90
2022-11-25T09:02:05.739Z,43.10
2022-11-25T09:04:39.633Z,43.20
2022-11-25T09:07:13.351Z,43.50
2022-11-25T09:09:47.605Z,43.90
2022-11-25T09:12:22.992Z,42.90
2022-11-25T09:14:56.870Z,43.10
2022-11-25T09:17:30.471Z,43.20
2022-11-25T09:20:05.442Z,43.20
2022-11-25T09:22:39.439Z,43.60
2022-11-25T09:25:13.294Z,43.80
2022-11-25T09:27:48.349Z,44.00
2022-11-25T09:30:22.339Z,44.30
2022-11-25T09:32:57.099Z,44.40
2022-11-25T09:35:30.959Z,44.70
2022-11-25T09:38:04.891Z,44.90
2022-11-25T09:40:46.722Z,45.10
2022-11-25T09:43:52.107Z,45.40
2022-11-25T09:46:46.344Z,45.60
2022-11-25T09:49:45.109Z,45.90
2022-11-25T09:52:26.458Z,46.40
2022-11-25T09:55:06.613Z,46.50
2022-11-25T09:57:57.937Z,46.90
2022-11-25T10:00:41.054Z,47.10
2022-11-25T10:03:20.130Z,47.40
2022-11-25T10:06:01.252Z,47.60
2022-11-25T10:08:39.427Z,47.70
2022-11-25T10:11:28.203Z,47.70
2022-11-25T10:14:08.813Z,47.80
2022-11-25T10:16:51.765Z,47.80
2022-11-25T10:19:35.639Z,47.90
2022-11-25T10:22:18.834Z,48.00
2022-11-25T10:24:56.124Z,48.30
2022-11-25T10:27:39.779Z,48.20
2022-11-25T10:30:20.082Z,48.30
2022-11-25T10:33:04.706Z,48.40
2022-11-25T10:35:42.734Z,48.60
2022-11-25T10:38:36.839Z,48.60
2022-11-25T10:41:18.660Z,48.80
2022-11-25T10:43:52.796Z,48.80
2022-11-25T10:46:57.114Z,48.80
2022-11-25T10:49:37.668Z,49.10
2022-11-25T10:52:14.325Z,49.30
2022-11-25T10:54:57.873Z,49.30
2022-11-25T10:57:31.826Z,49.60
2022-11-25T11:00:11.626Z,49.50
2022-11-25T11:02:48.893Z,49.70
2022-11-25T11:05:27.265Z,49.70
2022-11-25T11:08:18.627Z,49.80
2022-11-25T11:11:11.960Z,49.90
2022-11-25T11:13:47.476Z,50.00
2022-11-25T11:16:31.025Z,49.90
2022-11-25T11:19:05.287Z,50.00
2022-11-25T11:21:43.136Z,50.00
2022-11-25T11:24:27.498Z,50.10
2022-11-25T11:27:07.439Z,50.30
2022-11-25T11:29:41.624Z,50.10
2022-11-25T11:32:22.702Z,50.30
2022-11-25T11:35:07.726Z,50.40
2022-11-25T11:37:47.163Z,50.40
2022-11-25T11:40:28.381Z,50.40
2022-11-25T11:43:29.442Z,50.60
2022-11-25T11:46:16.531Z,50.70
2022-11-25T11:49:00.787Z,50.80
2022-11-25T11:51:40.637Z,51.00
2022-11-25T11:54:20.031Z,51.10
2022-11-25T11:56:58.798Z,51.30
2022-11-25T11:59:50.303Z,51.30
2022-11-25T12:02:37.279Z,51.30
2022-11-25T12:05:19.477Z,51.30
2022-11-25T12:08:03.774Z,51.30
2022-11-25T12:10:44.467Z,51.30
2022-11-25T12:13:26.809Z,51.90
2022-11-25T12:16:08.528Z,51.00
2022-11-25T12:18:49.877Z,50.80
2022-11-25T12:21:41.620Z,50.70
2022-11-25T12:24:23.503Z,50.70
2022-11-25T12:27:04.065Z,50.90
2022-11-25T12:29:42.986Z,51.30
2022-11-25T12:32:50.234Z,51.60
2022-11-25T12:35:33.442Z,52.40
2022-11-25T12:38:21.650Z,52.70
2022-11-25T12:41:04.244Z,53.00
2022-11-25T12:43:44.606Z,53.90
2022-11-25T12:46:30.857Z,54.10
2022-11-25T12:49:07.446Z,54.30
2022-11-25T12:52:07.780Z,54.40
2022-11-25T12:55:06.651Z,54.80
2022-11-25T12:58:25.831Z,55.00
2022-11-25T13:01:33.578Z,55.20
2022-11-25T13:04:39.067Z,55.40
2022-11-25T13:07:44.267Z,55.40
2022-11-25T13:10:37.385Z,55.40
2022-11-25T13:13:34.831Z,54.50
2022-11-25T13:16:12.043Z,54.20
2022-11-25T13:18:46.916Z,53.70
2022-11-25T13:21:24.225Z,53.40
2022-11-25T13:23:59.622Z,53.20
2022-11-25T13:26:51.742Z,53.10
2022-11-25T13:29:55.774Z,53.20
2022-11-25T13:32:39.298Z,53.20
2022-11-25T13:35:36.238Z,53.10
2022-11-25T13:38:47.435Z,53.30
2022-11-25T13:41:34.433Z,53.30
2022-11-25T13:44:19.745Z,53.30
2022-11-25T13:46:55.920Z,53.20
2022-11-25T13:49:37.724Z,53.20
2022-11-25T13:52:48.145Z,53.10
2022-11-25T13:55:34.239Z,53.30
2022-11-25T13:58:23.480Z,53.20
2022-11-25T14:01:29.197Z,53.20
2022-11-25T14:04:07.224Z,53.30
2022-11-25T14:07:06.952Z,53.30
2022-11-25T14:09:58.616Z,53.40
2022-11-25T14:13:04.607Z,53.60
2022-11-25T14:15:51.285Z,53.60
2022-11-25T14:22:01.436Z,53.80
2022-11-25T14:24:43.465Z,53.10
2022-11-25T14:27:21.431Z,52.40
2022-11-25T14:30:01.891Z,52.10
2022-11-25T14:32:42.917Z,51.80
2022-11-25T14:35:21.472Z,51.60
2022-11-25T14:38:01.376Z,51.50
2022-11-25T14:40:39.856Z,51.50
2022-11-25T14:43:20.261Z,51.10
2022-11-25T14:46:17.706Z,50.90
2022-11-25T14:48:56.656Z,50.70
2022-11-25T14:51:37.060Z,50.70
2022-11-25T14:54:12.046Z,50.60
2022-11-25T14:56:48.777Z,50.60
2022-11-25T14:59:22.915Z,50.40
2022-11-25T15:01:58.752Z,50.30
2022-11-25T15:04:34.038Z,49.90
2022-11-25T15:07:26.347Z,49.70
2022-11-25T15:10:02.576Z,49.50
2022-11-25T15:12:41.887Z,48.80
2022-11-25T15:15:20.140Z,48.50
2022-11-25T15:17:56.434Z,48.30
2022-11-25T15:20:35.800Z,48.00
2022-11-25T15:23:18.261Z,47.90
2022-11-25T15:25:53.879Z,47.70
2022-11-25T15:28:28.101Z,47.50
2022-11-25T15:31:05.031Z,46.90
2022-11-25T15:33:41.835Z,47.00
2022-11-25T15:36:15.871Z,47.00
2022-11-25T15:38:50.233Z,46.80
2022-11-25T15:41:37.944Z,46.80
2022-11-25T15:44:22.242Z,46.60
2022-11-25T15:47:05.236Z,46.30
2022-11-25T15:49:41.622Z,45.90
2022-11-25T15:52:20.469Z,45.70
2022-11-25T15:54:58.857Z,45.30
2022-11-25T15:57:35.435Z,45.30
2022-11-25T16:00:19.427Z,45.20
2022-11-25T16:02:58.687Z,45.20
2022-11-25T16:05:37.254Z,44.50
2022-11-25T16:08:35.197Z,44.20
2022-11-25T16:11:20.225Z,43.20
2022-11-25T16:13:55.629Z,44.10
2022-11-25T16:16:31.287Z,44.20
2022-11-25T16:19:19.073Z,44.10
2022-11-25T16:22:00.951Z,44.10
2022-11-25T16:24:41.701Z,44.00
2022-11-25T16:27:24.149Z,44.10
2022-11-25T16:30:09.560Z,44.30
2022-11-25T16:32:43.601Z,43.90
2022-11-25T16:35:20.755Z,43.90
2022-11-25T16:37:59.555Z,43.70
2022-11-25T16:40:37.062Z,44.00
2022-11-25T16:43:20.356Z,43.90
2022-11-25T16:45:56.002Z,43.60
2022-11-25T16:48:30.021Z,43.50
2022-11-25T16:51:04.581Z,43.40
2022-11-25T16:53:39.957Z,43.50
2022-11-25T16:56:17.003Z,43.60
2022-11-25T16:58:50.992Z,43.60
2022-11-25T17:01:27.870Z,43.70
2022-11-25T17:04:02.386Z,44.20
2022-11-25T17:06:37.531Z,44.30
2022-11-25T17:09:13.230Z,44.50
2022-11-25T17:11:54.737Z,44.70
2022-11-25T17:14:32.789Z,44.80
2022-11-25T17:17:07.102Z,45.10
2022-11-25T17:19:41.473Z,45.30
2022-11-25T17:22:19.150Z,45.40
2022-11-25T17:24:55.289Z,45.70
2022-11-25T17:27:32.417Z,45.90
2022-11-25T17:30:19.337Z,46.10
2022-11-25T17:32:59.913Z,46.10
2022-11-25T17:35:34.217Z,46.30
2022-11-25T17:38:14.470Z,46.40
2022-11-25T17:40:50.760Z,46.50
2022-11-25T17:43:24.719Z,46.50
2022-11-25T17:45:58.863Z,46.60
2022-11-25T17:48:33.195Z,47.70
2022-11-25T17:51:07.803Z,48.40
2022-11-25T17:53:42.624Z,49.20
2022-11-25T17:56:24.850Z,50.20
2022-11-25T17:59:02.848Z,50.80
2022-11-25T18:01:36.857Z,50.80
2022-11-25T18:04:18.686Z,50.70
2022-11-25T18:06:53.143Z,50.70
2022-11-25T18:09:27.191Z,50.50
2022-11-25T18:12:08.010Z,50.40
2022-11-25T18:14:43.056Z,50.30
2022-11-25T18:17:19.324Z,50.20
2022-11-25T18:19:55.644Z,50.20
2022-11-25T18:22:30.797Z,50.20
2022-11-25T18:25:08.266Z,50.00
2022-11-25T18:27:45.820Z,50.00
2022-11-25T18:30:21.416Z,50.00
2022-11-25T18:32:56.412Z,49.90
2022-11-25T18:35:36.143Z,49.90
2022-11-25T18:38:11.374Z,49.90
2022-11-25T18:40:51.869Z,49.90
2022-11-25T18:43:29.466Z,49.80
2022-11-25T18:46:03.739Z,49.90
2022-11-25T18:48:37.982Z,49.80
2022-11-25T18:51:14.558Z,49.90
2022-11-25T18:53:48.523Z,49.90
2022-11-25T18:56:22.667Z,50.10
2022-11-25T18:59:00.093Z,50.20
2022-11-25T19:01:34.108Z,50.20
2022-11-25T19:04:08.475Z,50.20
2022-11-25T19:06:43.045Z,50.60
2022-11-25T19:09:17.560Z,51.30
2022-11-25T19:11:54.642Z,51.40
2022-11-25T19:14:33.928Z,51.70
2022-11-25T19:17:18.250Z,51.90
2022-11-25T19:19:54.319Z,51.90
2022-11-25T19:22:28.891Z,52.00
2022-11-25T19:25:05.483Z,52.30
2022-11-25T19:27:43.216Z,52.70
2022-11-25T19:30:21.410Z,52.80
2022-11-25T19:32:58.220Z,53.10
2022-11-25T19:35:37.230Z,53.00
2022-11-25T19:38:19.201Z,53.30
2022-11-25T19:40:54.250Z,53.50
2022-11-25T19:43:28.552Z,53.40
2022-11-25T19:46:05.604Z,53.50
2022-11-25T19:48:41.861Z,53.30
2022-11-25T19:51:22.703Z,53.30
2022-11-25T19:53:57.836Z,53.40
2022-11-25T19:56:33.285Z,53.40
2022-11-25T19:59:08.415Z,53.40
2022-11-25T20:01:46.814Z,53.50
2022-11-25T20:04:22.145Z,53.60
2022-11-25T20:06:56.453Z,53.70
2022-11-25T20:09:30.575Z,53.80
2022-11-25T20:12:19.843Z,53.70
2022-11-25T20:14:54.164Z,53.80
2022-11-25T20:17:32.695Z,53.90
2022-11-25T20:20:10.945Z,53.90
2022-11-25T20:22:50.948Z,54.00
2022-11-25T20:25:26.061Z,53.70
2022-11-25T20:28:03.199Z,54.10
2022-11-25T20:30:37.847Z,54.20
2022-11-25T20:33:14.133Z,54.10
2022-11-25T20:35:51.555Z,54.30
2022-11-25T20:38:28.169Z,54.40
2022-11-25T20:41:03.264Z,54.40
2022-11-25T20:43:41.690Z,54.50
2022-11-25T20:46:17.787Z,54.80
2022-11-25T20:48:56.126Z,54.60
2022-11-25T20:51:30.387Z,54.50
2022-11-25T20:54:05.955Z,54.60
2022-11-25T20:56:39.925Z,54.90
2022-11-25T20:59:21.812Z,54.90
2022-11-25T21:01:55.990Z,55.10
2022-11-25T21:04:31.524Z,55.00
2022-11-25T21:07:05.850Z,54.90
2022-11-25T21:09:39.766Z,55.00
2022-11-25T21:12:19.136Z,55.20
2022-11-25T21:14:54.075Z,55.00
2022-11-25T21:17:28.564Z,55.00
2022-11-25T21:20:04.063Z,54.60
2022-11-25T21:22:41.352Z,54.70
2022-11-25T21:25:18.340Z,54.60
2022-11-25T21:27:53.281Z,54.60
2022-11-25T21:30:30.980Z,54.60
2022-11-25T21:33:07.509Z,54.70
2022-11-25T21:35:45.467Z,54.90
2022-11-25T21:38:22.429Z,54.90
2022-11-25T21:40:58.763Z,55.00
2022-11-25T21:43:35.357Z,55.00
2022-11-25T21:46:13.107Z,55.10
2022-11-25T21:48:47.324Z,55.10
2022-11-25T21:51:24.434Z,55.00
2022-11-25T21:53:58.665Z,55.00
2022-11-25T21:56:35.420Z,55.10
2022-11-25T21:59:15.579Z,55.70
2022-11-25T22:01:49.952Z,55.20
2022-11-25T22:04:24.873Z,55.40
2022-11-25T22:07:00.219Z,55.20
2022-11-25T22:09:34.122Z,55.10
2022-11-25T22:12:17.398Z,55.10
2022-11-25T22:14:51.534Z,55.20
2022-11-25T22:17:26.060Z,55.20
2022-11-25T22:20:00.250Z,55.00
2022-11-25T22:22:35.556Z,55.00
2022-11-25T22:25:14.138Z,55.00
2022-11-25T22:27:48.533Z,55.00
2022-11-25T22:30:24.160Z,54.90
2022-11-25T22:33:02.256Z,54.80
2022-11-25T22:35:36.395Z,54.90
2022-11-25T22:38:15.938Z,54.80
2022-11-25T22:40:53.231Z,54.80
2022-11-25T22:43:30.178Z,54.80
2022-11-25T22:46:05.314Z,54.60
2022-11-25T22:48:40.253Z,54.70
2022-11-25T22:51:17.769Z,54.50
2022-11-25T22:53:53.058Z,54.60
2022-11-25T22:56:28.401Z,54.70
2022-11-25T22:59:02.389Z,54.60
2022-11-25T23:01:38.177Z,54.60
2022-11-25T23:04:18.011Z,54.50
2022-11-25T23:06:53.016Z,54.60
2022-11-25T23:09:29.513Z,54.50
2022-11-25T23:12:03.917Z,54.50
2022-11-25T23:14:38.050Z,54.40
2022-11-25T23:17:19.204Z,54.50
2022-11-25T23:19:54.171Z,54.50
2022-11-25T23:22:28.034Z,54.40
2022-11-25T23:25:03.830Z,54.40
2022-11-25T23:27:37.802Z,54.40
2022-11-25T23:30:16.816Z,54.50
2022-11-25T23:32:52.593Z,54.60
2022-11-25T23:35:31.524Z,54.50
2022-11-25T23:38:08.804Z,54.50
2022-11-25T23:40:44.143Z,54.50
2022-11-25T23:43:18.468Z,54.40
2022-11-25T23:45:55.903Z,54.40
2022-11-25T23:48:32.218Z,54.40
2022-11-25T23:51:07.517Z,54.50
2022-11-25T23:53:42.475Z,54.50
2022-11-25T23:56:18.102Z,54.40
2022-11-25T23:58:52.277Z,54.50
